Time;durP1;ratioP1;P1;durP2;ratioP2;P2;SDS_P1;SDS_P2;PMS_P1;PMS_P2;Temp;Humidity;BMP_temperature;BMP_pressure;BME280_temperature;BME280_humidity;BME280_pressure;Samples;Min_cycle;Max_cycle;Signal;HPM_P1;HPM_P2
2022/08/30 00:02:34;;;;;;;4.53;3.53;;;;;;;;;;5019020;28;20201;-67
2022/08/30 00:05:01;;;;;;;5.75;3.95;;;;;;;;;;5031627;28;20186;-67
2022/08/30 00:07:26;;;;;;;6.53;4.40;;;;;;;;;;5017129;28;20234;-67
2022/08/30 00:09:51;;;;;;;6.75;4.30;;;;;;;;;;5031010;28;20209;-68
2022/08/30 00:12:19;;;;;;;6.28;4.32;;;;;;;;;;5029072;28;20186;-67
2022/08/30 00:14:45;;;;;;;5.68;4.65;;;;;;;;;;5022668;28;20218;-67
2022/08/30 00:17:10;;;;;;;5.93;4.45;;;;;;;;;;5027129;28;20706;-67
2022/08/30 00:19:36;;;;;;;5.32;4.35;;;;;;;;;;5026524;28;20178;-68
2022/08/30 00:22:02;;;;;;;9.25;4.90;;;;;;;;;;5024038;28;20181;-67
2022/08/30 00:24:28;;;;;;;5.53;4.32;;;;;;;;;;5030707;28;20226;-67
2022/08/30 00:26:53;;;;;;;9.57;5.10;;;;;;;;;;5029615;28;20209;-67
2022/08/30 00:29:18;;;;;;;5.15;4.70;;;;;;;;;;5030540;28;20516;-67
2022/08/30 00:31:44;;;;;;;5.63;5.10;;;;;;;;;;5030196;28;20209;-67
2022/08/30 00:34:09;;;;;;;5.72;4.97;;;;;;;;;;5030121;28;20211;-68
2022/08/30 00:36:34;;;;;;;7.70;5.63;;;;;;;;;;5020862;28;20206;-68
2022/08/30 00:39:00;;;;;;;6.47;5.60;;;;;;;;;;5029059;28;20182;-67
2022/08/30 00:41:25;;;;;;;6.93;5.15;;;;;;;;;;5030487;28;20262;-67
2022/08/30 00:43:51;;;;;;;8.68;6.10;;;;;;;;;;5021814;28;20656;-67
2022/08/30 00:46:16;;;;;;;6.93;6.22;;;;;;;;;;5021343;28;20264;-67
2022/08/30 00:48:46;;;;;;;7.90;6.15;;;;;;;;;;5021318;28;20272;-67
2022/08/30 00:51:14;;;;;;;6.90;6.03;;;;;;;;;;5026582;28;20201;-67
2022/08/30 00:53:44;;;;;;;8.52;5.82;;;;;;;;;;5026123;28;20186;-67
2022/08/30 00:56:12;;;;;;;7.05;6.32;;;;;;;;;;5024576;28;20174;-67
2022/08/30 00:58:42;;;;;;;7.18;6.10;;;;;;;;;;5026601;28;20186;-67
2022/08/30 01:01:09;;;;;;;7.85;6.55;;;;;;;;;;5028057;28;20174;-68
2022/08/30 01:03:35;;;;;;;8.05;6.50;;;;;;;;;;5020466;28;20178;-67
2022/08/30 01:06:02;;;;;;;9.98;7.32;;;;;;;;;;5024449;28;20220;-67
2022/08/30 01:08:27;;;;;;;7.40;6.40;;;;;;;;;;5021546;28;20178;-67
2022/08/30 01:10:55;;;;;;;7.95;6.90;;;;;;;;;;5030164;28;20193;-68
2022/08/30 01:13:22;;;;;;;7.50;6.53;;;;;;;;;;5020116;28;20553;-67
2022/08/30 01:15:49;;;;;;;7.03;6.20;;;;;;;;;;5017778;28;20187;-68
2022/08/30 01:18:16;;;;;;;7.90;6.50;;;;;;;;;;5026502;28;20178;-67
2022/08/30 01:21:14;;;;;;;11.45;6.40;;;;;;;;;;5012946;28;20205;-67
2022/08/30 01:23:42;;;;;;;7.13;6.43;;;;;;;;;;5015214;28;20265;-67
2022/08/30 01:26:09;;;;;;;8.45;6.72;;;;;;;;;;5017713;28;20217;-67
2022/08/30 01:28:34;;;;;;;8.70;7.13;;;;;;;;;;5011016;28;20187;-67
2022/08/30 01:31:00;;;;;;;8.07;7.28;;;;;;;;;;5015670;28;20251;-67
2022/08/30 01:33:26;;;;;;;10.48;7.18;;;;;;;;;;5018731;28;20204;-67
2022/08/30 01:35:58;;;;;;;7.65;6.95;;;;;;;;;;5018268;28;20194;-67
2022/08/30 01:38:27;;;;;;;8.70;7.38;;;;;;;;;;5018053;28;20528;-67
2022/08/30 01:40:58;;;;;;;8.30;7.30;;;;;;;;;;5016431;28;20193;-67
2022/08/30 01:43:24;;;;;;;11.05;6.82;;;;;;;;;;5024981;28;20189;-67
2022/08/30 01:45:49;;;;;;;7.90;6.32;;;;;;;;;;5020844;28;20236;-67
2022/08/30 01:48:15;;;;;;;8.35;7.00;;;;;;;;;;5020967;28;20665;-68
2022/08/30 01:50:40;;;;;;;6.97;6.22;;;;;;;;;;5022685;28;20232;-67
2022/08/30 01:53:07;;;;;;;8.57;5.90;;;;;;;;;;5011218;28;20531;-67
2022/08/30 01:55:32;;;;;;;9.23;6.50;;;;;;;;;;5019104;28;20187;-68
2022/08/30 01:57:57;;;;;;;8.45;6.80;;;;;;;;;;5012841;28;20183;-67
2022/08/30 02:00:23;;;;;;;7.63;6.75;;;;;;;;;;5013403;28;20222;-67
2022/08/30 02:02:49;;;;;;;7.65;6.68;;;;;;;;;;5014065;28;20765;-67
2022/08/30 02:05:14;;;;;;;7.45;6.65;;;;;;;;;;5010729;28;20207;-67
2022/08/30 02:07:40;;;;;;;10.20;7.38;;;;;;;;;;5019905;28;20205;-67
2022/08/30 02:10:06;;;;;;;9.07;7.53;;;;;;;;;;5022835;28;20208;-67
2022/08/30 02:12:32;;;;;;;8.27;7.03;;;;;;;;;;5018374;28;20182;-68
2022/08/30 02:14:57;;;;;;;10.20;7.20;;;;;;;;;;5023438;28;21122;-68
2022/08/30 02:17:23;;;;;;;7.10;6.18;;;;;;;;;;5020052;28;20273;-67
2022/08/30 02:19:48;;;;;;;7.25;6.60;;;;;;;;;;5009930;28;20534;-67
2022/08/30 02:22:15;;;;;;;12.13;7.43;;;;;;;;;;5016739;28;20186;-68
2022/08/30 02:24:40;;;;;;;7.85;7.13;;;;;;;;;;5018308;28;20217;-67
2022/08/30 02:27:05;;;;;;;7.72;6.90;;;;;;;;;;5018951;28;20193;-67
2022/08/30 02:29:31;;;;;;;7.82;6.97;;;;;;;;;;5013455;28;20538;-68
2022/08/30 02:31:56;;;;;;;10.07;7.70;;;;;;;;;;5015141;28;20293;-67
2022/08/30 02:34:22;;;;;;;7.75;6.95;;;;;;;;;;5016329;28;20576;-67
2022/08/30 02:36:47;;;;;;;8.15;7.35;;;;;;;;;;5017703;28;20183;-67
2022/08/30 02:39:13;;;;;;;7.65;6.90;;;;;;;;;;5017684;28;20190;-68
2022/08/30 02:41:39;;;;;;;7.72;6.93;;;;;;;;;;5026953;28;20193;-67
2022/08/30 02:44:06;;;;;;;7.32;6.63;;;;;;;;;;5033035;28;20182;-67
2022/08/30 02:46:32;;;;;;;8.52;6.65;;;;;;;;;;5027400;28;20613;-67
2022/08/30 02:48:58;;;;;;;8.85;7.18;;;;;;;;;;5022479;28;20268;-67
2022/08/30 02:51:24;;;;;;;9.40;6.38;;;;;;;;;;5032039;28;20272;-67
2022/08/30 02:53:50;;;;;;;7.70;6.40;;;;;;;;;;5027778;28;20173;-67
2022/08/30 02:56:15;;;;;;;7.28;6.50;;;;;;;;;;5025606;28;20191;-67
2022/08/30 02:58:42;;;;;;;8.30;6.75;;;;;;;;;;5023766;28;20186;-67
2022/08/30 03:01:11;;;;;;;7.60;6.60;;;;;;;;;;5025866;28;20240;-67
2022/08/30 03:03:36;;;;;;;7.78;6.82;;;;;;;;;;5027389;28;20212;-68
2022/08/30 03:06:04;;;;;;;7.35;6.65;;;;;;;;;;5029320;28;20234;-68
2022/08/30 03:08:31;;;;;;;8.55;7.10;;;;;;;;;;5022557;28;20235;-67
2022/08/30 03:10:57;;;;;;;11.30;7.25;;;;;;;;;;5028536;28;20542;-68
2022/08/30 03:13:23;;;;;;;8.10;6.85;;;;;;;;;;5030378;28;20226;-67
2022/08/30 03:15:49;;;;;;;7.43;6.65;;;;;;;;;;5025594;28;20186;-67
2022/08/30 03:18:16;;;;;;;10.15;7.75;;;;;;;;;;5025895;28;20272;-68
2022/08/30 03:20:41;;;;;;;12.35;8.15;;;;;;;;;;5030790;28;20173;-68
2022/08/30 03:23:07;;;;;;;10.27;7.35;;;;;;;;;;5028068;28;20213;-67
2022/08/30 03:25:32;;;;;;;11.73;6.82;;;;;;;;;;5026378;28;20266;-68
2022/08/30 03:27:58;;;;;;;10.35;7.75;;;;;;;;;;5029221;28;20209;-67
2022/08/30 03:30:24;;;;;;;10.55;7.45;;;;;;;;;;5032144;28;20182;-68
2022/08/30 03:32:50;;;;;;;7.95;7.13;;;;;;;;;;5029697;28;20210;-67
2022/08/30 03:35:17;;;;;;;9.82;8.07;;;;;;;;;;5027083;28;20243;-67
2022/08/30 03:37:42;;;;;;;11.15;8.75;;;;;;;;;;5025515;28;20530;-67
2022/08/30 03:40:09;;;;;;;13.23;9.35;;;;;;;;;;5026645;28;20500;-68
2022/08/30 03:42:35;;;;;;;15.90;10.70;;;;;;;;;;5028755;28;20273;-68
2022/08/30 03:45:03;;;;;;;15.13;12.07;;;;;;;;;;5027483;28;20308;-68
2022/08/30 03:47:29;;;;;;;16.38;13.23;;;;;;;;;;5027844;28;20728;-67
2022/08/30 03:49:54;;;;;;;16.75;12.27;;;;;;;;;;5031695;28;20186;-68
2022/08/30 03:52:20;;;;;;;15.80;12.57;;;;;;;;;;5026548;28;20183;-68
2022/08/30 03:54:45;;;;;;;18.00;13.05;;;;;;;;;;5028637;28;20190;-68
2022/08/30 03:57:11;;;;;;;13.05;11.35;;;;;;;;;;5027241;28;20182;-68
2022/08/30 03:59:36;;;;;;;14.05;12.40;;;;;;;;;;5025007;28;20194;-68
2022/08/30 04:02:02;;;;;;;15.45;12.43;;;;;;;;;;5026301;28;20589;-67
2022/08/30 04:04:27;;;;;;;15.50;13.60;;;;;;;;;;5028022;28;20228;-68
2022/08/30 04:06:54;;;;;;;16.63;12.30;;;;;;;;;;5025481;28;20292;-67
2022/08/30 04:09:19;;;;;;;16.48;12.00;;;;;;;;;;5028405;28;20188;-68
2022/08/30 04:11:45;;;;;;;12.73;10.82;;;;;;;;;;5026759;28;20186;-67
2022/08/30 04:14:10;;;;;;;18.10;12.15;;;;;;;;;;5025668;28;20232;-68
2022/08/30 04:16:36;;;;;;;11.95;10.63;;;;;;;;;;5022840;28;20633;-68
2022/08/30 04:19:01;;;;;;;11.93;10.30;;;;;;;;;;5026631;28;20190;-67
2022/08/30 04:21:27;;;;;;;12.35;11.05;;;;;;;;;;5025396;28;20564;-68
2022/08/30 04:23:52;;;;;;;12.38;10.40;;;;;;;;;;5024562;28;20189;-68
2022/08/30 04:26:17;;;;;;;12.80;10.38;;;;;;;;;;5026487;28;20313;-68
2022/08/30 04:28:43;;;;;;;11.38;10.02;;;;;;;;;;5024821;28;20269;-68
2022/08/30 04:31:10;;;;;;;11.18;9.63;;;;;;;;;;5021986;28;20205;-67
2022/08/30 04:33:36;;;;;;;13.98;10.13;;;;;;;;;;5024187;28;20186;-68
2022/08/30 04:36:04;;;;;;;13.27;9.90;;;;;;;;;;5026215;28;20204;-68
2022/08/30 04:38:31;;;;;;;14.45;10.30;;;;;;;;;;5022252;28;20212;-68
2022/08/30 04:40:56;;;;;;;11.75;9.70;;;;;;;;;;5026041;28;20273;-68
2022/08/30 04:43:24;;;;;;;10.90;9.65;;;;;;;;;;5020500;28;20265;-69
2022/08/30 04:45:51;;;;;;;12.95;10.52;;;;;;;;;;5024418;28;20190;-68
2022/08/30 04:48:17;;;;;;;11.82;8.95;;;;;;;;;;5023778;28;20214;-68
2022/08/30 04:50:43;;;;;;;12.55;9.55;;;;;;;;;;5025467;28;20190;-68
2022/08/30 04:53:08;;;;;;;11.52;9.13;;;;;;;;;;5023741;28;20178;-67
2022/08/30 04:55:33;;;;;;;10.55;9.15;;;;;;;;;;5026094;28;20265;-68
2022/08/30 04:57:59;;;;;;;11.30;7.95;;;;;;;;;;5022750;28;20884;-68
2022/08/30 05:00:25;;;;;;;11.65;8.82;;;;;;;;;;5023160;28;20183;-68
2022/08/30 05:02:50;;;;;;;13.60;8.82;;;;;;;;;;5019955;28;20191;-68
2022/08/30 05:07:59;;;;;;;10.05;8.00;;;;;;;;;;5019393;28;20466;-68
2022/08/30 05:10:26;;;;;;;10.85;8.05;;;;;;;;;;5025583;28;20269;-68
2022/08/30 05:12:52;;;;;;;10.10;8.13;;;;;;;;;;5023481;28;20186;-68
2022/08/30 05:15:19;;;;;;;11.85;8.30;;;;;;;;;;5025784;28;20182;-68
2022/08/30 05:17:44;;;;;;;12.65;7.75;;;;;;;;;;5021098;28;20221;-68
2022/08/30 05:20:11;;;;;;;11.43;8.23;;;;;;;;;;5019305;28;20212;-68
2022/08/30 05:22:38;;;;;;;9.38;7.50;;;;;;;;;;5024568;28;20190;-67
2022/08/30 05:25:05;;;;;;;11.98;7.82;;;;;;;;;;5024794;28;20332;-67
2022/08/30 05:27:30;;;;;;;8.50;7.00;;;;;;;;;;5017817;28;20202;-67
2022/08/30 05:29:56;;;;;;;11.10;7.65;;;;;;;;;;5023013;28;20186;-68
2022/08/30 05:32:21;;;;;;;9.45;7.15;;;;;;;;;;5018243;28;20210;-68
2022/08/30 05:34:46;;;;;;;9.18;6.90;;;;;;;;;;5018485;28;20197;-68
2022/08/30 05:37:12;;;;;;;10.52;7.63;;;;;;;;;;5020011;28;20174;-68
2022/08/30 05:39:37;;;;;;;7.97;6.63;;;;;;;;;;5025244;28;20182;-68
2022/08/30 05:42:03;;;;;;;8.88;6.85;;;;;;;;;;5022860;28;20225;-68
2022/08/30 05:44:28;;;;;;;7.80;6.90;;;;;;;;;;5020229;28;20638;-68
2022/08/30 05:46:53;;;;;;;9.30;7.40;;;;;;;;;;5016293;28;20222;-68
2022/08/30 05:49:19;;;;;;;11.50;7.50;;;;;;;;;;5019903;28;21053;-68
2022/08/30 05:51:44;;;;;;;10.35;7.18;;;;;;;;;;5012849;28;20661;-68
2022/08/30 05:54:12;;;;;;;10.02;6.78;;;;;;;;;;5020670;28;20186;-68
2022/08/30 05:56:38;;;;;;;8.40;6.70;;;;;;;;;;5011395;28;20187;-68
2022/08/30 05:59:05;;;;;;;10.60;6.50;;;;;;;;;;5027800;28;20786;-68
2022/08/30 06:01:37;;;;;;;7.88;6.68;;;;;;;;;;5023033;28;20552;-68
2022/08/30 06:04:04;;;;;;;9.15;6.65;;;;;;;;;;5023841;28;20701;-68
2022/08/30 06:06:34;;;;;;;8.15;5.80;;;;;;;;;;5024123;28;20222;-68
2022/08/30 06:09:00;;;;;;;8.93;5.88;;;;;;;;;;5017541;28;20583;-68
2022/08/30 06:11:25;;;;;;;9.63;6.25;;;;;;;;;;5022830;28;20186;-68
2022/08/30 06:13:52;;;;;;;7.78;5.85;;;;;;;;;;5024459;28;20551;-68
2022/08/30 06:16:20;;;;;;;10.98;5.80;;;;;;;;;;5024250;28;20189;-68
2022/08/30 06:18:46;;;;;;;7.13;4.80;;;;;;;;;;5018312;28;20258;-68
2022/08/30 06:21:20;;;;;;;10.10;5.63;;;;;;;;;;5026861;28;20185;-68
2022/08/30 06:23:45;;;;;;;7.85;4.28;;;;;;;;;;5017607;28;20179;-68
2022/08/30 06:26:11;;;;;;;6.95;4.13;;;;;;;;;;5019323;28;20237;-68
2022/08/30 06:28:37;;;;;;;4.80;4.30;;;;;;;;;;5023196;28;20182;-68
2022/08/30 06:31:06;;;;;;;11.18;4.28;;;;;;;;;;5024275;28;20243;-67
2022/08/30 06:33:33;;;;;;;7.03;3.92;;;;;;;;;;5016775;28;20178;-69
2022/08/30 06:36:03;;;;;;;5.22;4.05;;;;;;;;;;5022472;28;20642;-67
2022/08/30 06:38:29;;;;;;;5.68;3.58;;;;;;;;;;5017851;28;20186;-68
2022/08/30 06:40:54;;;;;;;5.22;3.50;;;;;;;;;;5023818;28;20186;-67
2022/08/30 06:43:19;;;;;;;6.40;3.15;;;;;;;;;;5018034;28;20194;-68
2022/08/30 06:45:45;;;;;;;8.73;3.67;;;;;;;;;;5024798;28;20220;-68
2022/08/30 06:48:10;;;;;;;4.28;3.38;;;;;;;;;;5019771;28;20189;-67
2022/08/30 06:50:35;;;;;;;14.32;3.30;;;;;;;;;;5025022;28;20189;-67
2022/08/30 06:53:04;;;;;;;6.38;3.15;;;;;;;;;;5020363;28;20808;-68
2022/08/30 06:55:32;;;;;;;5.07;2.83;;;;;;;;;;5020299;28;20294;-68
2022/08/30 06:57:59;;;;;;;4.00;2.47;;;;;;;;;;5024286;28;20178;-68
2022/08/30 07:00:25;;;;;;;5.90;2.47;;;;;;;;;;5022808;28;20178;-69
2022/08/30 07:02:50;;;;;;;3.72;2.45;;;;;;;;;;5023351;28;20197;-68
2022/08/30 07:05:16;;;;;;;6.93;2.45;;;;;;;;;;5019103;28;20178;-68
2022/08/30 07:07:42;;;;;;;4.47;2.50;;;;;;;;;;5020155;28;20214;-68
2022/08/30 07:10:08;;;;;;;5.38;2.80;;;;;;;;;;5024955;28;20209;-68
2022/08/30 07:12:34;;;;;;;5.88;2.42;;;;;;;;;;4330377;28;10000073;-69
2022/08/30 07:15:02;;;;;;;7.60;2.80;;;;;;;;;;5018542;28;20192;-73
2022/08/30 07:20:12;;;;;;;7.32;2.70;;;;;;;;;;5018018;28;20197;-68
2022/08/30 07:22:38;;;;;;;4.30;2.08;;;;;;;;;;5016906;28;20205;-69
2022/08/30 07:25:03;;;;;;;7.05;2.58;;;;;;;;;;5017545;28;20701;-71
2022/08/30 07:27:29;;;;;;;6.63;2.63;;;;;;;;;;5017198;28;20643;-67
2022/08/30 07:29:54;;;;;;;5.00;1.80;;;;;;;;;;5021552;28;20402;-67
2022/08/30 07:32:20;;;;;;;8.57;2.58;;;;;;;;;;5025834;28;20351;-67
2022/08/30 07:34:45;;;;;;;2.05;1.50;;;;;;;;;;5019992;28;20298;-67
2022/08/30 07:37:10;;;;;;;7.68;1.80;;;;;;;;;;5023869;28;20317;-66
2022/08/30 07:39:36;;;;;;;3.88;1.77;;;;;;;;;;5023842;28;20273;-67
2022/08/30 07:42:01;;;;;;;3.72;1.50;;;;;;;;;;5022356;28;20185;-70
2022/08/30 07:44:26;;;;;;;3.03;1.60;;;;;;;;;;5026895;28;20194;-67
2022/08/30 07:46:52;;;;;;;6.10;1.63;;;;;;;;;;5028808;28;20210;-67
2022/08/30 07:49:18;;;;;;;6.13;1.77;;;;;;;;;;5028669;28;20209;-67
2022/08/30 07:51:44;;;;;;;4.35;1.58;;;;;;;;;;5023395;28;20218;-69
2022/08/30 07:54:10;;;;;;;6.25;1.40;;;;;;;;;;5015262;28;20729;-68
2022/08/30 07:56:35;;;;;;;3.22;1.40;;;;;;;;;;5015738;28;20624;-70
2022/08/30 07:59:00;;;;;;;5.22;1.50;;;;;;;;;;5028413;28;20318;-68
2022/08/30 08:01:26;;;;;;;5.03;1.60;;;;;;;;;;5029482;28;20568;-70
2022/08/30 08:03:51;;;;;;;2.40;1.57;;;;;;;;;;5011915;28;20789;-69
2022/08/30 08:06:19;;;;;;;4.78;1.50;;;;;;;;;;5028703;28;20662;-68
2022/08/30 08:08:44;;;;;;;1.90;0.98;;;;;;;;;;5026761;28;20174;-67
2022/08/30 08:11:19;;;;;;;5.05;1.13;;;;;;;;;;5028716;28;20188;-67
2022/08/30 08:13:46;;;;;;;4.68;1.75;;;;;;;;;;5026371;28;20205;-68
2022/08/30 08:16:11;;;;;;;2.13;1.30;;;;;;;;;;5028042;28;20670;-68
2022/08/30 08:18:37;;;;;;;3.30;1.15;;;;;;;;;;5028774;28;20216;-68
2022/08/30 08:21:03;;;;;;;6.45;1.25;;;;;;;;;;5028450;28;20208;-69
2022/08/30 08:23:28;;;;;;;1.75;1.20;;;;;;;;;;5030088;28;20190;-68
2022/08/30 08:25:54;;;;;;;3.20;1.75;;;;;;;;;;5029060;28;20248;-67
2022/08/30 08:28:21;;;;;;;4.00;1.50;;;;;;;;;;5029975;28;20213;-67
2022/08/30 08:30:46;;;;;;;4.63;2.33;;;;;;;;;;5028076;28;20539;-67
2022/08/30 08:33:14;;;;;;;3.97;1.20;;;;;;;;;;5024998;28;20213;-67
2022/08/30 08:35:40;;;;;;;3.78;1.30;;;;;;;;;;5027636;28;20634;-66
2022/08/30 08:38:05;;;;;;;3.60;1.13;;;;;;;;;;5027614;28;20185;-68
2022/08/30 08:40:54;;;;;;;2.40;1.10;;;;;;;;;;5029913;28;20498;-68
2022/08/30 08:43:24;;;;;;;3.67;1.27;;;;;;;;;;5024967;28;20186;-67
2022/08/30 08:46:04;;;;;;;4.35;0.95;;;;;;;;;;5029518;28;20186;-67
2022/08/30 08:48:45;;;;;;;4.28;1.15;;;;;;;;;;5030073;28;20188;-67
2022/08/30 08:54:03;;;;;;;5.50;1.30;;;;;;;;;;5029169;28;20213;-66
2022/08/30 08:56:28;;;;;;;3.05;1.38;;;;;;;;;;5028452;28;20182;-70
2022/08/30 08:58:56;;;;;;;2.40;1.05;;;;;;;;;;5027820;28;20192;-70
2022/08/30 09:01:26;;;;;;;2.92;0.90;;;;;;;;;;5028251;28;20192;-69
2022/08/30 09:03:51;;;;;;;5.68;1.42;;;;;;;;;;5028780;28;20224;-68
2022/08/30 09:06:28;;;;;;;2.95;1.00;;;;;;;;;;5028951;28;21208;-68
2022/08/30 09:08:54;;;;;;;3.30;1.17;;;;;;;;;;5028288;28;20189;-68
2022/08/30 09:11:24;;;;;;;2.47;0.98;;;;;;;;;;5026873;28;20607;-68
2022/08/30 09:13:50;;;;;;;2.60;1.00;;;;;;;;;;5026747;28;20186;-68
2022/08/30 09:16:44;;;;;;;1.73;0.85;;;;;;;;;;5026209;28;20179;-67
2022/08/30 09:19:09;;;;;;;1.35;0.90;;;;;;;;;;5025720;28;20186;-67
2022/08/30 09:21:35;;;;;;;5.75;0.90;;;;;;;;;;5028516;28;20186;-69
2022/08/30 09:24:09;;;;;;;3.15;1.05;;;;;;;;;;5026971;28;20193;-68
2022/08/30 09:26:36;;;;;;;3.03;1.00;;;;;;;;;;5026115;28;20266;-68
2022/08/30 09:29:04;;;;;;;1.63;0.95;;;;;;;;;;5025934;28;20251;-67
2022/08/30 09:31:52;;;;;;;3.15;0.93;;;;;;;;;;5022710;28;20248;-67
2022/08/30 09:34:20;;;;;;;2.72;1.10;;;;;;;;;;5023630;28;20174;-67
2022/08/30 09:36:51;;;;;;;3.63;1.00;;;;;;;;;;5019943;28;20239;-68
2022/08/30 09:39:28;;;;;;;1.48;0.80;;;;;;;;;;5021691;28;20183;-71
2022/08/30 09:42:08;;;;;;;2.05;0.98;;;;;;;;;;5023539;28;20452;-71
2022/08/30 09:44:37;;;;;;;0.85;0.70;;;;;;;;;;5022539;28;20626;-68
2022/08/30 09:47:03;;;;;;;5.40;1.40;;;;;;;;;;5020009;28;20210;-68
2022/08/30 09:49:38;;;;;;;2.20;0.80;;;;;;;;;;5021438;28;20205;-69
2022/08/30 09:52:55;;;;;;;5.28;1.10;;;;;;;;;;5021360;28;20917;-67
2022/08/30 09:55:24;;;;;;;3.20;1.02;;;;;;;;;;5001572;28;20221;-67
2022/08/30 09:58:06;;;;;;;3.92;1.20;;;;;;;;;;5023078;28;20178;-66
2022/08/30 10:00:38;;;;;;;3.08;1.10;;;;;;;;;;5023799;28;20583;-69
2022/08/30 10:03:29;;;;;;;1.23;1.10;;;;;;;;;;5022973;28;20642;-67
2022/08/30 10:06:06;;;;;;;2.70;1.00;;;;;;;;;;5016062;28;20612;-68
2022/08/30 10:09:11;;;;;;;3.25;1.17;;;;;;;;;;5023334;28;20231;-67
2022/08/30 10:11:45;;;;;;;2.20;1.08;;;;;;;;;;5021940;28;20518;-68
2022/08/30 10:14:31;;;;;;;2.47;0.98;;;;;;;;;;5024133;28;20177;-69
2022/08/30 10:17:19;;;;;;;4.55;1.30;;;;;;;;;;5024874;28;20298;-71
2022/08/30 10:19:57;;;;;;;1.63;0.70;;;;;;;;;;5025942;28;20178;-67
2022/08/30 10:22:41;;;;;;;3.53;0.82;;;;;;;;;;5028640;28;20189;-70
2022/08/30 10:25:29;;;;;;;2.30;1.13;;;;;;;;;;5021476;28;20654;-68
2022/08/30 10:28:20;;;;;;;2.63;0.93;;;;;;;;;;5027381;28;20216;-68
2022/08/30 10:30:57;;;;;;;3.33;1.00;;;;;;;;;;5030583;28;20185;-67
2022/08/30 10:33:35;;;;;;;2.08;0.98;;;;;;;;;;5030005;28;20181;-69
2022/08/30 10:36:04;;;;;;;3.42;1.15;;;;;;;;;;5024460;28;20186;-70
2022/08/30 10:38:33;;;;;;;5.93;1.05;;;;;;;;;;5031616;28;20213;-68
2022/08/30 10:41:32;;;;;;;2.78;1.50;;;;;;;;;;5036283;28;20213;-68
2022/08/30 10:44:12;;;;;;;2.90;1.10;;;;;;;;;;5027770;28;20178;-69
2022/08/30 10:46:55;;;;;;;1.60;0.98;;;;;;;;;;5025036;28;20205;-68
2022/08/30 10:49:24;;;;;;;2.53;0.90;;;;;;;;;;5018413;28;20231;-69
2022/08/30 10:51:59;;;;;;;4.40;0.95;;;;;;;;;;5020286;28;20190;-69
2022/08/30 10:54:49;;;;;;;1.48;0.93;;;;;;;;;;5031052;28;20649;-69
2022/08/30 10:57:14;;;;;;;1.65;1.00;;;;;;;;;;5026728;28;20534;-68
2022/08/30 10:59:45;;;;;;;2.70;0.80;;;;;;;;;;5019217;28;20178;-67
2022/08/30 11:02:14;;;;;;;1.80;1.02;;;;;;;;;;5025943;28;20193;-74
2022/08/30 11:04:49;;;;;;;5.50;1.20;;;;;;;;;;5032173;28;20182;-77
2022/08/30 11:07:26;;;;;;;2.58;0.93;;;;;;;;;;5027130;28;20211;-67
2022/08/30 11:10:13;;;;;;;2.45;0.90;;;;;;;;;;5032594;28;20209;-68
2022/08/30 11:13:02;;;;;;;1.10;0.90;;;;;;;;;;5031743;28;20280;-68
2022/08/30 11:15:49;;;;;;;2.38;1.00;;;;;;;;;;5019597;28;20252;-67
2022/08/30 11:18:14;;;;;;;3.70;1.08;;;;;;;;;;5026422;28;20433;-68
2022/08/30 11:20:43;;;;;;;6.07;0.90;;;;;;;;;;5030642;28;20636;-68
2022/08/30 11:23:29;;;;;;;2.88;1.17;;;;;;;;;;5019869;28;20193;-67
2022/08/30 11:26:00;;;;;;;1.45;0.85;;;;;;;;;;5023396;28;20315;-68
2022/08/30 11:28:34;;;;;;;2.20;1.10;;;;;;;;;;5029647;28;20234;-67
2022/08/30 11:31:19;;;;;;;2.20;0.80;;;;;;;;;;5029789;28;20191;-69
2022/08/30 11:33:47;;;;;;;2.63;0.90;;;;;;;;;;5018377;28;20185;-67
2022/08/30 11:36:31;;;;;;;1.38;1.00;;;;;;;;;;5025562;28;20183;-68
2022/08/30 11:39:08;;;;;;;2.70;0.90;;;;;;;;;;5011906;28;20229;-73
2022/08/30 11:41:39;;;;;;;2.30;0.98;;;;;;;;;;5026011;28;20580;-68
2022/08/30 11:44:12;;;;;;;2.50;1.38;;;;;;;;;;5022030;28;20346;-67
2022/08/30 11:46:39;;;;;;;1.13;0.80;;;;;;;;;;5030966;28;20206;-68
2022/08/30 11:49:57;;;;;;;2.63;1.00;;;;;;;;;;5025143;28;20186;-67
2022/08/30 11:52:34;;;;;;;4.38;1.30;;;;;;;;;;5013307;28;20785;-67
2022/08/30 11:55:07;;;;;;;1.95;1.00;;;;;;;;;;5024122;28;20193;-67
2022/08/30 11:58:00;;;;;;;4.00;0.98;;;;;;;;;;5018086;28;20541;-67
2022/08/30 12:00:40;;;;;;;1.98;1.00;;;;;;;;;;5019174;28;20209;-67
2022/08/30 12:03:15;;;;;;;1.33;0.98;;;;;;;;;;5018311;28;20183;-72
2022/08/30 12:05:44;;;;;;;1.45;0.90;;;;;;;;;;5030019;28;20219;-68
2022/08/30 12:08:32;;;;;;;1.42;1.05;;;;;;;;;;5029042;28;20665;-68
2022/08/30 12:11:07;;;;;;;2.97;0.98;;;;;;;;;;5029185;28;20190;-69
2022/08/30 12:13:33;;;;;;;0.88;0.80;;;;;;;;;;5028245;28;20181;-67
2022/08/30 12:16:01;;;;;;;2.22;0.93;;;;;;;;;;5024622;28;20183;-69
2022/08/30 12:18:40;;;;;;;0.98;0.90;;;;;;;;;;5024456;28;20182;-70
2022/08/30 12:21:13;;;;;;;1.85;0.82;;;;;;;;;;5030104;28;20177;-68
2022/08/30 12:23:51;;;;;;;1.83;1.17;;;;;;;;;;5030309;28;20181;-68
2022/08/30 12:26:24;;;;;;;1.77;0.80;;;;;;;;;;5028850;28;20226;-68
2022/08/30 12:29:03;;;;;;;1.70;0.80;;;;;;;;;;5030973;28;20201;-68
2022/08/30 12:31:29;;;;;;;1.63;1.05;;;;;;;;;;5029294;28;20241;-68
2022/08/30 12:34:00;;;;;;;2.83;0.70;;;;;;;;;;5031084;28;20209;-68
2022/08/30 12:36:34;;;;;;;1.40;1.00;;;;;;;;;;5027267;28;20200;-68
2022/08/30 12:39:20;;;;;;;3.10;1.13;;;;;;;;;;5028222;28;20182;-68
2022/08/30 12:41:46;;;;;;;3.45;0.85;;;;;;;;;;5021602;28;20601;-67
2022/08/30 12:44:23;;;;;;;3.33;1.02;;;;;;;;;;5022075;28;20189;-67
2022/08/30 12:46:54;;;;;;;1.40;0.88;;;;;;;;;;5026804;28;20219;-66
2022/08/30 12:49:22;;;;;;;1.67;0.88;;;;;;;;;;5028451;28;20174;-66
2022/08/30 12:51:48;;;;;;;2.72;0.90;;;;;;;;;;5027463;28;20186;-67
2022/08/30 12:54:21;;;;;;;1.85;0.90;;;;;;;;;;5028760;28;20182;-67
2022/08/30 12:57:02;;;;;;;3.90;0.93;;;;;;;;;;5016342;28;20225;-67
2022/08/30 13:00:00;;;;;;;3.15;0.82;;;;;;;;;;5027370;28;20212;-68
2022/08/30 13:02:50;;;;;;;2.25;0.98;;;;;;;;;;5000444;28;20621;-67
2022/08/30 13:05:43;;;;;;;1.40;0.90;;;;;;;;;;5028257;28;20197;-67
2022/08/30 13:08:08;;;;;;;2.17;1.00;;;;;;;;;;5028021;28;20746;-66
2022/08/30 13:10:34;;;;;;;3.08;1.10;;;;;;;;;;5026894;28;20269;-66
2022/08/30 13:13:05;;;;;;;1.73;1.10;;;;;;;;;;5028858;28;20198;-68
2022/08/30 13:15:34;;;;;;;1.70;1.02;;;;;;;;;;5027787;28;20213;-69
2022/08/30 13:18:19;;;;;;;2.75;0.80;;;;;;;;;;5022981;28;20197;-68
2022/08/30 13:20:46;;;;;;;1.60;0.98;;;;;;;;;;5011053;28;20566;-67
2022/08/30 13:23:21;;;;;;;1.80;1.00;;;;;;;;;;5015319;28;20538;-67
2022/08/30 13:25:46;;;;;;;4.57;1.30;;;;;;;;;;5019501;28;20309;-69
2022/08/30 13:28:12;;;;;;;1.95;0.90;;;;;;;;;;5024263;28;20830;-69
2022/08/30 13:30:37;;;;;;;2.92;0.98;;;;;;;;;;5027533;28;20186;-67
2022/08/30 13:33:03;;;;;;;1.48;0.98;;;;;;;;;;5028335;28;20335;-68
2022/08/30 13:35:29;;;;;;;1.50;1.10;;;;;;;;;;5027148;28;20182;-72
2022/08/30 13:37:56;;;;;;;4.97;1.30;;;;;;;;;;5026211;28;20190;-68
2022/08/30 13:40:22;;;;;;;3.28;0.90;;;;;;;;;;5027040;28;20551;-68
2022/08/30 13:42:48;;;;;;;2.25;1.25;;;;;;;;;;5028554;28;20189;-74
2022/08/30 13:45:16;;;;;;;2.03;1.08;;;;;;;;;;5026470;28;20668;-68
2022/08/30 13:47:42;;;;;;;3.10;1.27;;;;;;;;;;5024766;28;20248;-67
2022/08/30 13:50:08;;;;;;;1.92;1.13;;;;;;;;;;5028866;28;20644;-69
2022/08/30 13:52:34;;;;;;;4.68;1.10;;;;;;;;;;5028585;28;20351;-67
2022/08/30 13:54:59;;;;;;;2.55;1.10;;;;;;;;;;5026922;28;20194;-71
2022/08/30 13:57:28;;;;;;;2.42;1.25;;;;;;;;;;5027747;28;20178;-69
2022/08/30 13:59:53;;;;;;;2.53;1.00;;;;;;;;;;5027957;28;20331;-69
2022/08/30 14:02:19;;;;;;;6.22;1.23;;;;;;;;;;5025191;28;20285;-69
2022/08/30 14:04:44;;;;;;;3.50;1.10;;;;;;;;;;5028550;28;20174;-68
2022/08/30 14:07:09;;;;;;;1.73;0.95;;;;;;;;;;5027621;28;20202;-69
2022/08/30 14:09:35;;;;;;;9.48;1.20;;;;;;;;;;5028500;28;20174;-68
2022/08/30 14:12:00;;;;;;;5.18;1.10;;;;;;;;;;5025984;28;20208;-69
2022/08/30 14:14:26;;;;;;;1.05;0.95;;;;;;;;;;5027122;28;20551;-69
2022/08/30 14:16:51;;;;;;;4.38;1.10;;;;;;;;;;5024266;28;20185;-69
2022/08/30 14:19:17;;;;;;;3.42;0.90;;;;;;;;;;5025405;28;20174;-69
2022/08/30 14:21:44;;;;;;;2.65;1.27;;;;;;;;;;5022301;28;20261;-69
2022/08/30 14:24:09;;;;;;;1.42;1.10;;;;;;;;;;5023383;28;20603;-72
2022/08/30 14:26:38;;;;;;;1.83;1.15;;;;;;;;;;5020096;28;20194;-69
2022/08/30 14:29:06;;;;;;;1.33;1.10;;;;;;;;;;5025905;28;20220;-71
2022/08/30 14:31:32;;;;;;;5.55;1.42;;;;;;;;;;5025912;28;20218;-71
2022/08/30 14:33:57;;;;;;;1.15;0.85;;;;;;;;;;5020262;28;20563;-69
2022/08/30 14:36:22;;;;;;;2.28;1.00;;;;;;;;;;5026100;28;20185;-70
2022/08/30 14:38:48;;;;;;;3.55;1.20;;;;;;;;;;5017704;28;20166;-70
2022/08/30 14:41:14;;;;;;;5.40;1.60;;;;;;;;;;5023245;28;20205;-70
2022/08/30 14:43:40;;;;;;;1.88;1.10;;;;;;;;;;5023896;28;20202;-68
2022/08/30 14:46:05;;;;;;;3.85;1.00;;;;;;;;;;5026976;28;20181;-70
2022/08/30 14:48:30;;;;;;;1.80;0.90;;;;;;;;;;5025611;28;20217;-69
2022/08/30 14:50:56;;;;;;;1.75;0.98;;;;;;;;;;5025961;28;20276;-69
2022/08/30 14:53:21;;;;;;;3.38;1.25;;;;;;;;;;5026213;28;20205;-69
2022/08/30 14:55:46;;;;;;;2.88;0.90;;;;;;;;;;5023094;28;20177;-68
2022/08/30 14:58:16;;;;;;;1.95;1.30;;;;;;;;;;5027613;28;20673;-68
2022/08/30 15:00:41;;;;;;;1.88;0.93;;;;;;;;;;5027751;28;20492;-68
2022/08/30 15:03:10;;;;;;;3.00;1.08;;;;;;;;;;5024373;28;20188;-68